sensor_id;sensor_type;location;lat;lon;timestamp;temperature;humidity
19803;DHT22;66074;50.764;6.090;2023-04-06T00:02:11;6.60;69.10
19803;DHT22;66074;50.764;6.090;2023-04-06T00:04:37;6.50;68.40
19803;DHT22;66074;50.764;6.090;2023-04-06T00:07:03;6.60;69.20
19803;DHT22;66074;50.764;6.090;2023-04-06T00:09:28;6.50;68.10
19803;DHT22;66074;50.764;6.090;2023-04-06T00:11:54;6.50;68.30
19803;DHT22;66074;50.764;6.090;2023-04-06T00:14:20;6.50;68.10
19803;DHT22;66074;50.764;6.090;2023-04-06T00:16:46;6.50;68.30
19803;DHT22;66074;50.764;6.090;2023-04-06T00:19:12;6.40;68.40
19803;DHT22;66074;50.764;6.090;2023-04-06T00:21:37;6.40;68.50
19803;DHT22;66074;50.764;6.090;2023-04-06T00:24:03;6.40;68.80
19803;DHT22;66074;50.764;6.090;2023-04-06T00:26:29;6.30;69.30
19803;DHT22;66074;50.764;6.090;2023-04-06T00:28:55;6.20;69.60
19803;DHT22;66074;50.764;6.090;2023-04-06T00:31:20;6.20;69.60
19803;DHT22;66074;50.764;6.090;2023-04-06T00:33:47;6.20;69.80
19803;DHT22;66074;50.764;6.090;2023-04-06T00:36:13;6.20;69.80
19803;DHT22;66074;50.764;6.090;2023-04-06T00:38:38;6.20;69.80
19803;DHT22;66074;50.764;6.090;2023-04-06T00:41:04;6.20;69.80
19803;DHT22;66074;50.764;6.090;2023-04-06T00:43:30;6.10;69.70
19803;DHT22;66074;50.764;6.090;2023-04-06T00:45:55;6.10;69.90
19803;DHT22;66074;50.764;6.090;2023-04-06T00:48:21;6.10;70.10
19803;DHT22;66074;50.764;6.090;2023-04-06T00:50:47;6.10;69.70
19803;DHT22;66074;50.764;6.090;2023-04-06T00:53:13;6.10;69.90
19803;DHT22;66074;50.764;6.090;2023-04-06T00:55:38;6.10;70.00
19803;DHT22;66074;50.764;6.090;2023-04-06T00:58:04;6.10;70.00
19803;DHT22;66074;50.764;6.090;2023-04-06T01:00:31;6.00;70.30
19803;DHT22;66074;50.764;6.090;2023-04-06T01:02:57;6.00;69.50
19803;DHT22;66074;50.764;6.090;2023-04-06T01:05:23;6.10;69.70
19803;DHT22;66074;50.764;6.090;2023-04-06T01:07:48;6.10;69.30
19803;DHT22;66074;50.764;6.090;2023-04-06T01:10:28;6.00;69.40
19803;DHT22;66074;50.764;6.090;2023-04-06T01:12:53;6.10;70.00
19803;DHT22;66074;50.764;6.090;2023-04-06T01:15:20;6.00;69.60
19803;DHT22;66074;50.764;6.090;2023-04-06T01:17:46;6.00;69.70
19803;DHT22;66074;50.764;6.090;2023-04-06T01:20:11;6.00;69.50
19803;DHT22;66074;50.764;6.090;2023-04-06T01:22:37;6.00;69.50
19803;DHT22;66074;50.764;6.090;2023-04-06T01:25:03;6.10;69.40
19803;DHT22;66074;50.764;6.090;2023-04-06T01:27:28;6.00;69.30
19803;DHT22;66074;50.764;6.090;2023-04-06T01:29:55;6.00;69.20
19803;DHT22;66074;50.764;6.090;2023-04-06T01:32:21;6.00;69.10
19803;DHT22;66074;50.764;6.090;2023-04-06T01:34:46;6.00;69.60
19803;DHT22;66074;50.764;6.090;2023-04-06T01:37:12;6.00;69.40
19803;DHT22;66074;50.764;6.090;2023-04-06T01:39:38;6.00;69.50
19803;DHT22;66074;50.764;6.090;2023-04-06T01:42:03;6.00;69.70
19803;DHT22;66074;50.764;6.090;2023-04-06T01:44:29;6.00;69.90
19803;DHT22;66074;50.764;6.090;2023-04-06T01:46:57;5.90;69.90
19803;DHT22;66074;50.764;6.090;2023-04-06T01:49:23;6.00;70.60
19803;DHT22;66074;50.764;6.090;2023-04-06T01:51:48;6.00;69.80
19803;DHT22;66074;50.764;6.090;2023-04-06T01:54:14;5.90;69.70
19803;DHT22;66074;50.764;6.090;2023-04-06T01:56:40;6.00;69.50
19803;DHT22;66074;50.764;6.090;2023-04-06T01:59:06;6.00;69.70
19803;DHT22;66074;50.764;6.090;2023-04-06T02:01:32;5.90;69.50
19803;DHT22;66074;50.764;6.090;2023-04-06T02:03:57;5.90;69.50
19803;DHT22;66074;50.764;6.090;2023-04-06T02:06:23;5.90;69.50
19803;DHT22;66074;50.764;6.090;2023-04-06T02:08:48;6.00;69.60
19803;DHT22;66074;50.764;6.090;2023-04-06T02:11:14;5.90;69.50
19803;DHT22;66074;50.764;6.090;2023-04-06T02:13:40;5.90;69.50
19803;DHT22;66074;50.764;6.090;2023-04-06T02:16:06;5.90;70.10
19803;DHT22;66074;50.764;6.090;2023-04-06T02:18:31;5.90;69.20
19803;DHT22;66074;50.764;6.090;2023-04-06T02:20:57;6.00;69.30
19803;DHT22;66074;50.764;6.090;2023-04-06T02:23:23;6.00;69.20
19803;DHT22;66074;50.764;6.090;2023-04-06T02:25:48;5.90;69.20
19803;DHT22;66074;50.764;6.090;2023-04-06T02:28:14;6.00;69.30
19803;DHT22;66074;50.764;6.090;2023-04-06T02:30:40;6.00;70.10
19803;DHT22;66074;50.764;6.090;2023-04-06T02:33:05;6.00;69.30
19803;DHT22;66074;50.764;6.090;2023-04-06T02:35:31;6.00;69.20
19803;DHT22;66074;50.764;6.090;2023-04-06T02:37:57;6.00;69.30
19803;DHT22;66074;50.764;6.090;2023-04-06T02:40:23;6.00;69.30
19803;DHT22;66074;50.764;6.090;2023-04-06T02:42:48;6.00;69.40
19803;DHT22;66074;50.764;6.090;2023-04-06T02:45:14;6.00;69.40
19803;DHT22;66074;50.764;6.090;2023-04-06T02:47:41;6.00;69.50
19803;DHT22;66074;50.764;6.090;2023-04-06T02:50:07;6.00;69.60
19803;DHT22;66074;50.764;6.090;2023-04-06T02:52:33;6.00;69.70
19803;DHT22;66074;50.764;6.090;2023-04-06T02:54:59;6.00;69.70
19803;DHT22;66074;50.764;6.090;2023-04-06T02:57:24;6.00;69.60
19803;DHT22;66074;50.764;6.090;2023-04-06T02:59:50;6.00;69.70
19803;DHT22;66074;50.764;6.090;2023-04-06T03:02:16;6.00;69.90
19803;DHT22;66074;50.764;6.090;2023-04-06T03:04:42;6.00;69.90
19803;DHT22;66074;50.764;6.090;2023-04-06T03:07:08;6.00;69.80
19803;DHT22;66074;50.764;6.090;2023-04-06T03:09:36;6.00;69.80
19803;DHT22;66074;50.764;6.090;2023-04-06T03:12:02;6.00;69.90
19803;DHT22;66074;50.764;6.090;2023-04-06T03:14:28;6.00;70.00
19803;DHT22;66074;50.764;6.090;2023-04-06T03:16:53;6.00;69.90
19803;DHT22;66074;50.764;6.090;2023-04-06T03:19:19;6.00;70.20
19803;DHT22;66074;50.764;6.090;2023-04-06T03:21:45;6.00;70.20
19803;DHT22;66074;50.764;6.090;2023-04-06T03:24:11;6.00;70.40
19803;DHT22;66074;50.764;6.090;2023-04-06T03:26:38;6.10;70.40
19803;DHT22;66074;50.764;6.090;2023-04-06T03:29:03;6.10;70.40
19803;DHT22;66074;50.764;6.090;2023-04-06T03:31:29;6.10;70.30
19803;DHT22;66074;50.764;6.090;2023-04-06T03:33:55;6.10;70.30
19803;DHT22;66074;50.764;6.090;2023-04-06T03:36:21;6.20;70.50
19803;DHT22;66074;50.764;6.090;2023-04-06T03:38:47;6.20;70.50
19803;DHT22;66074;50.764;6.090;2023-04-06T03:41:13;6.20;71.10
19803;DHT22;66074;50.764;6.090;2023-04-06T03:43:38;6.30;70.40
19803;DHT22;66074;50.764;6.090;2023-04-06T03:46:04;6.30;70.50
19803;DHT22;66074;50.764;6.090;2023-04-06T03:48:30;6.30;70.50
19803;DHT22;66074;50.764;6.090;2023-04-06T03:50:55;6.30;70.50
19803;DHT22;66074;50.764;6.090;2023-04-06T03:53:21;6.40;70.50
19803;DHT22;66074;50.764;6.090;2023-04-06T03:55:47;6.40;70.40
19803;DHT22;66074;50.764;6.090;2023-04-06T03:58:12;6.50;70.40
19803;DHT22;66074;50.764;6.090;2023-04-06T04:00:38;6.60;70.20
19803;DHT22;66074;50.764;6.090;2023-04-06T04:03:04;6.70;70.60
19803;DHT22;66074;50.764;6.090;2023-04-06T04:05:29;6.70;70.40
19803;DHT22;66074;50.764;6.090;2023-04-06T04:07:55;6.70;70.30
19803;DHT22;66074;50.764;6.090;2023-04-06T04:10:21;6.80;70.30
19803;DHT22;66074;50.764;6.090;2023-04-06T04:12:46;6.80;70.00
19803;DHT22;66074;50.764;6.090;2023-04-06T04:15:12;6.80;69.80
19803;DHT22;66074;50.764;6.090;2023-04-06T04:17:38;6.90;69.80
19803;DHT22;66074;50.764;6.090;2023-04-06T04:20:03;6.90;69.60
19803;DHT22;66074;50.764;6.090;2023-04-06T04:22:29;6.90;69.50
19803;DHT22;66074;50.764;6.090;2023-04-06T04:24:55;6.90;69.40
19803;DHT22;66074;50.764;6.090;2023-04-06T04:27:20;7.00;69.50
19803;DHT22;66074;50.764;6.090;2023-04-06T04:29:47;7.00;69.50
19803;DHT22;66074;50.764;6.090;2023-04-06T04:32:12;7.00;69.60
19803;DHT22;66074;50.764;6.090;2023-04-06T04:34:38;6.90;69.60
19803;DHT22;66074;50.764;6.090;2023-04-06T04:37:06;7.00;69.70
19803;DHT22;66074;50.764;6.090;2023-04-06T04:39:32;7.00;69.60
19803;DHT22;66074;50.764;6.090;2023-04-06T04:41:58;7.00;69.50
19803;DHT22;66074;50.764;6.090;2023-04-06T04:44:23;7.00;69.70
19803;DHT22;66074;50.764;6.090;2023-04-06T04:46:49;7.00;69.80
19803;DHT22;66074;50.764;6.090;2023-04-06T04:49:15;7.00;69.80
19803;DHT22;66074;50.764;6.090;2023-04-06T04:51:40;7.00;69.90
19803;DHT22;66074;50.764;6.090;2023-04-06T04:54:06;7.00;70.20
19803;DHT22;66074;50.764;6.090;2023-04-06T04:56:32;7.00;70.30
19803;DHT22;66074;50.764;6.090;2023-04-06T04:58:57;7.00;70.30
19803;DHT22;66074;50.764;6.090;2023-04-06T05:01:23;7.00;70.30
19803;DHT22;66074;50.764;6.090;2023-04-06T05:03:49;7.00;70.50
19803;DHT22;66074;50.764;6.090;2023-04-06T05:06:14;7.00;70.50
19803;DHT22;66074;50.764;6.090;2023-04-06T05:08:41;6.90;70.70
19803;DHT22;66074;50.764;6.090;2023-04-06T05:11:07;6.90;71.00
19803;DHT22;66074;50.764;6.090;2023-04-06T05:13:33;6.90;70.90
19803;DHT22;66074;50.764;6.090;2023-04-06T05:15:59;7.00;71.10
19803;DHT22;66074;50.764;6.090;2023-04-06T05:18:25;7.00;70.90
19803;DHT22;66074;50.764;6.090;2023-04-06T05:20:51;7.00;71.10
19803;DHT22;66074;50.764;6.090;2023-04-06T05:23:17;7.10;71.00
19803;DHT22;66074;50.764;6.090;2023-04-06T05:25:42;7.20;71.00
19803;DHT22;66074;50.764;6.090;2023-04-06T05:28:08;7.20;70.90
19803;DHT22;66074;50.764;6.090;2023-04-06T05:30:34;7.20;71.00
19803;DHT22;66074;50.764;6.090;2023-04-06T05:33:01;7.20;70.90
19803;DHT22;66074;50.764;6.090;2023-04-06T05:35:26;7.30;70.70
19803;DHT22;66074;50.764;6.090;2023-04-06T05:37:52;7.40;70.60
19803;DHT22;66074;50.764;6.090;2023-04-06T05:40:18;7.60;70.70
19803;DHT22;66074;50.764;6.090;2023-04-06T05:42:43;7.70;70.50
19803;DHT22;66074;50.764;6.090;2023-04-06T05:45:10;7.70;70.20
19803;DHT22;66074;50.764;6.090;2023-04-06T05:47:37;7.80;70.10
19803;DHT22;66074;50.764;6.090;2023-04-06T05:50:03;7.90;70.10
19803;DHT22;66074;50.764;6.090;2023-04-06T05:52:28;8.00;69.90
19803;DHT22;66074;50.764;6.090;2023-04-06T05:54:54;8.10;70.20
19803;DHT22;66074;50.764;6.090;2023-04-06T05:57:20;8.20;70.00
19803;DHT22;66074;50.764;6.090;2023-04-06T05:59:46;8.20;69.90
19803;DHT22;66074;50.764;6.090;2023-04-06T06:02:11;8.30;70.00
19803;DHT22;66074;50.764;6.090;2023-04-06T06:04:37;8.40;70.10
19803;DHT22;66074;50.764;6.090;2023-04-06T06:07:03;8.40;70.00
19803;DHT22;66074;50.764;6.090;2023-04-06T06:09:29;8.50;70.10
19803;DHT22;66074;50.764;6.090;2023-04-06T06:11:55;8.50;70.00
19803;DHT22;66074;50.764;6.090;2023-04-06T06:14:20;8.60;70.10
19803;DHT22;66074;50.764;6.090;2023-04-06T06:16:47;8.70;70.10
19803;DHT22;66074;50.764;6.090;2023-04-06T06:19:13;8.80;70.00
19803;DHT22;66074;50.764;6.090;2023-04-06T06:21:39;8.90;70.00
19803;DHT22;66074;50.764;6.090;2023-04-06T06:24:05;9.00;70.00
19803;DHT22;66074;50.764;6.090;2023-04-06T06:26:31;9.10;69.80
19803;DHT22;66074;50.764;6.090;2023-04-06T06:28:56;9.10;69.80
19803;DHT22;66074;50.764;6.090;2023-04-06T06:31:22;9.10;69.80
19803;DHT22;66074;50.764;6.090;2023-04-06T06:33:51;9.20;70.00
19803;DHT22;66074;50.764;6.090;2023-04-06T06:36:17;9.30;70.00
19803;DHT22;66074;50.764;6.090;2023-04-06T06:38:43;9.30;70.00
19803;DHT22;66074;50.764;6.090;2023-04-06T06:41:09;9.40;70.10
19803;DHT22;66074;50.764;6.090;2023-04-06T06:43:35;9.40;70.10
19803;DHT22;66074;50.764;6.090;2023-04-06T06:46:01;9.50;70.20
19803;DHT22;66074;50.764;6.090;2023-04-06T06:48:26;9.50;70.30
19803;DHT22;66074;50.764;6.090;2023-04-06T06:50:52;9.60;70.40
19803;DHT22;66074;50.764;6.090;2023-04-06T06:53:18;9.60;70.30
19803;DHT22;66074;50.764;6.090;2023-04-06T06:55:44;9.70;70.40
19803;DHT22;66074;50.764;6.090;2023-04-06T06:58:10;9.70;70.40
19803;DHT22;66074;50.764;6.090;2023-04-06T07:00:35;9.80;70.50
19803;DHT22;66074;50.764;6.090;2023-04-06T07:03:01;9.90;70.60
19803;DHT22;66074;50.764;6.090;2023-04-06T07:05:27;9.90;70.50
19803;DHT22;66074;50.764;6.090;2023-04-06T07:07:53;10.00;69.50
19803;DHT22;66074;50.764;6.090;2023-04-06T07:10:19;9.90;70.50
19803;DHT22;66074;50.764;6.090;2023-04-06T07:12:45;10.00;69.60
19803;DHT22;66074;50.764;6.090;2023-04-06T07:15:11;10.10;69.50
19803;DHT22;66074;50.764;6.090;2023-04-06T07:17:37;10.10;69.50
19803;DHT22;66074;50.764;6.090;2023-04-06T07:20:03;10.10;69.50
19803;DHT22;66074;50.764;6.090;2023-04-06T07:22:29;10.20;69.30
19803;DHT22;66074;50.764;6.090;2023-04-06T07:24:55;10.20;69.40
19803;DHT22;66074;50.764;6.090;2023-04-06T07:27:20;10.30;69.50
19803;DHT22;66074;50.764;6.090;2023-04-06T07:29:46;10.40;69.50
19803;DHT22;66074;50.764;6.090;2023-04-06T07:32:12;10.40;69.40
19803;DHT22;66074;50.764;6.090;2023-04-06T07:34:38;10.40;69.40
19803;DHT22;66074;50.764;6.090;2023-04-06T07:37:03;10.50;69.60
19803;DHT22;66074;50.764;6.090;2023-04-06T07:39:29;10.50;70.20
19803;DHT22;66074;50.764;6.090;2023-04-06T07:41:55;10.60;69.70
19803;DHT22;66074;50.764;6.090;2023-04-06T07:44:20;10.70;69.70
19803;DHT22;66074;50.764;6.090;2023-04-06T07:46:46;10.70;69.50
19803;DHT22;66074;50.764;6.090;2023-04-06T07:49:12;10.80;69.60
19803;DHT22;66074;50.764;6.090;2023-04-06T07:51:38;10.90;69.50
19803;DHT22;66074;50.764;6.090;2023-04-06T07:54:04;11.00;69.50
19803;DHT22;66074;50.764;6.090;2023-04-06T07:56:30;11.00;69.20
19803;DHT22;66074;50.764;6.090;2023-04-06T07:58:56;11.10;69.30
19803;DHT22;66074;50.764;6.090;2023-04-06T08:01:23;11.20;69.00
19803;DHT22;66074;50.764;6.090;2023-04-06T08:03:49;11.30;68.90
19803;DHT22;66074;50.764;6.090;2023-04-06T08:06:15;11.40;68.90
19803;DHT22;66074;50.764;6.090;2023-04-06T08:08:42;11.40;68.90
19803;DHT22;66074;50.764;6.090;2023-04-06T08:11:07;11.50;68.60
19803;DHT22;66074;50.764;6.090;2023-04-06T08:13:34;11.60;68.90
19803;DHT22;66074;50.764;6.090;2023-04-06T08:15:59;11.60;68.80
19803;DHT22;66074;50.764;6.090;2023-04-06T08:18:25;11.60;68.70
19803;DHT22;66074;50.764;6.090;2023-04-06T08:20:51;11.70;68.60
19803;DHT22;66074;50.764;6.090;2023-04-06T08:23:17;11.70;68.70
19803;DHT22;66074;50.764;6.090;2023-04-06T08:25:43;11.70;68.50
19803;DHT22;66074;50.764;6.090;2023-04-06T08:28:09;11.70;68.70
19803;DHT22;66074;50.764;6.090;2023-04-06T08:30:35;11.80;68.40
19803;DHT22;66074;50.764;6.090;2023-04-06T08:33:01;11.70;68.30
19803;DHT22;66074;50.764;6.090;2023-04-06T08:35:27;11.70;68.30
19803;DHT22;66074;50.764;6.090;2023-04-06T08:37:53;11.80;68.20
19803;DHT22;66074;50.764;6.090;2023-04-06T08:40:19;11.80;68.20
19803;DHT22;66074;50.764;6.090;2023-04-06T08:42:50;11.90;68.20
19803;DHT22;66074;50.764;6.090;2023-04-06T08:45:16;11.80;67.90
19803;DHT22;66074;50.764;6.090;2023-04-06T08:47:43;11.90;68.20
19803;DHT22;66074;50.764;6.090;2023-04-06T08:50:10;11.90;68.00
19803;DHT22;66074;50.764;6.090;2023-04-06T08:52:37;12.00;68.30
19803;DHT22;66074;50.764;6.090;2023-04-06T08:55:03;12.00;68.20
19803;DHT22;66074;50.764;6.090;2023-04-06T08:57:31;12.10;68.30
19803;DHT22;66074;50.764;6.090;2023-04-06T08:59:57;12.10;68.10
19803;DHT22;66074;50.764;6.090;2023-04-06T09:02:26;12.10;67.90
19803;DHT22;66074;50.764;6.090;2023-04-06T09:04:53;12.10;68.10
19803;DHT22;66074;50.764;6.090;2023-04-06T09:07:19;12.10;68.10
19803;DHT22;66074;50.764;6.090;2023-04-06T09:09:45;12.20;68.10
19803;DHT22;66074;50.764;6.090;2023-04-06T09:12:28;12.20;68.10
19803;DHT22;66074;50.764;6.090;2023-04-06T09:14:54;12.20;67.80
19803;DHT22;66074;50.764;6.090;2023-04-06T09:17:32;12.20;67.80
19803;DHT22;66074;50.764;6.090;2023-04-06T09:20:00;12.20;67.60
19803;DHT22;66074;50.764;6.090;2023-04-06T09:22:34;12.20;67.70
19803;DHT22;66074;50.764;6.090;2023-04-06T09:25:00;12.30;67.80
19803;DHT22;66074;50.764;6.090;2023-04-06T09:27:37;12.30;67.80
19803;DHT22;66074;50.764;6.090;2023-04-06T09:30:08;12.30;67.50
19803;DHT22;66074;50.764;6.090;2023-04-06T09:32:55;12.40;67.70
19803;DHT22;66074;50.764;6.090;2023-04-06T09:35:21;12.40;67.70
19803;DHT22;66074;50.764;6.090;2023-04-06T09:37:50;12.40;67.70
19803;DHT22;66074;50.764;6.090;2023-04-06T09:40:17;12.50;67.70
19803;DHT22;66074;50.764;6.090;2023-04-06T09:42:48;12.50;67.60
19803;DHT22;66074;50.764;6.090;2023-04-06T09:45:14;12.60;67.70
19803;DHT22;66074;50.764;6.090;2023-04-06T09:47:45;12.60;67.50
19803;DHT22;66074;50.764;6.090;2023-04-06T09:50:12;12.70;67.70
19803;DHT22;66074;50.764;6.090;2023-04-06T09:55:05;12.80;67.90
19803;DHT22;66074;50.764;6.090;2023-04-06T09:58:04;12.90;67.70
19803;DHT22;66074;50.764;6.090;2023-04-06T10:00:33;13.10;67.50
19803;DHT22;66074;50.764;6.090;2023-04-06T10:03:21;13.30;67.80
19803;DHT22;66074;50.764;6.090;2023-04-06T10:05:55;13.40;68.20
19803;DHT22;66074;50.764;6.090;2023-04-06T10:08:26;13.60;67.80
19803;DHT22;66074;50.764;6.090;2023-04-06T10:10:54;13.60;67.80
19803;DHT22;66074;50.764;6.090;2023-04-06T10:13:20;13.70;68.00
19803;DHT22;66074;50.764;6.090;2023-04-06T10:15:46;13.70;68.10
19803;DHT22;66074;50.764;6.090;2023-04-06T10:18:12;13.70;68.10
19803;DHT22;66074;50.764;6.090;2023-04-06T10:21:15;13.70;68.10
19803;DHT22;66074;50.764;6.090;2023-04-06T10:23:46;13.70;68.00
19803;DHT22;66074;50.764;6.090;2023-04-06T10:26:14;13.70;68.10
19803;DHT22;66074;50.764;6.090;2023-04-06T10:28:42;13.60;68.10
19803;DHT22;66074;50.764;6.090;2023-04-06T10:31:08;13.50;68.10
19803;DHT22;66074;50.764;6.090;2023-04-06T10:33:34;13.50;68.20
19803;DHT22;66074;50.764;6.090;2023-04-06T10:36:22;13.50;68.20
19803;DHT22;66074;50.764;6.090;2023-04-06T10:38:54;13.50;68.30
19803;DHT22;66074;50.764;6.090;2023-04-06T10:41:20;13.60;68.60
19803;DHT22;66074;50.764;6.090;2023-04-06T10:43:55;13.60;68.50
19803;DHT22;66074;50.764;6.090;2023-04-06T10:46:26;13.50;68.20
19803;DHT22;66074;50.764;6.090;2023-04-06T10:48:52;13.50;68.40
19803;DHT22;66074;50.764;6.090;2023-04-06T10:51:18;13.50;68.40
19803;DHT22;66074;50.764;6.090;2023-04-06T10:53:47;13.50;68.30
19803;DHT22;66074;50.764;6.090;2023-04-06T10:56:15;13.40;68.20
19803;DHT22;66074;50.764;6.090;2023-04-06T10:58:47;13.50;68.70
19803;DHT22;66074;50.764;6.090;2023-04-06T11:01:18;13.60;68.90
19803;DHT22;66074;50.764;6.090;2023-04-06T11:03:46;13.70;68.90
19803;DHT22;66074;50.764;6.090;2023-04-06T11:06:18;13.60;68.50
19803;DHT22;66074;50.764;6.090;2023-04-06T11:08:45;13.60;68.70
19803;DHT22;66074;50.764;6.090;2023-04-06T11:11:15;13.60;68.80
19803;DHT22;66074;50.764;6.090;2023-04-06T11:13:46;13.50;68.80
19803;DHT22;66074;50.764;6.090;2023-04-06T11:16:16;13.60;68.90
19803;DHT22;66074;50.764;6.090;2023-04-06T11:19:09;13.60;68.80
19803;DHT22;66074;50.764;6.090;2023-04-06T11:21:40;13.60;69.00
19803;DHT22;66074;50.764;6.090;2023-04-06T11:24:25;13.60;69.30
19803;DHT22;66074;50.764;6.090;2023-04-06T11:26:54;13.70;69.20
19803;DHT22;66074;50.764;6.090;2023-04-06T11:29:21;13.70;69.10
19803;DHT22;66074;50.764;6.090;2023-04-06T11:31:51;13.60;68.60
19803;DHT22;66074;50.764;6.090;2023-04-06T11:34:22;13.50;69.40
19803;DHT22;66074;50.764;6.090;2023-04-06T11:36:56;13.50;70.10
19803;DHT22;66074;50.764;6.090;2023-04-06T11:39:26;13.50;70.70
19803;DHT22;66074;50.764;6.090;2023-04-06T11:41:54;13.40;71.20
19803;DHT22;66074;50.764;6.090;2023-04-06T11:44:33;13.40;71.10
19803;DHT22;66074;50.764;6.090;2023-04-06T11:47:01;13.30;71.40
19803;DHT22;66074;50.764;6.090;2023-04-06T11:49:28;13.20;70.50
19803;DHT22;66074;50.764;6.090;2023-04-06T11:51:55;13.10;70.90
19803;DHT22;66074;50.764;6.090;2023-04-06T11:56:56;12.80;72.50
19803;DHT22;66074;50.764;6.090;2023-04-06T11:59:22;12.80;72.60
19803;DHT22;66074;50.764;6.090;2023-04-06T12:01:48;12.80;73.10
19803;DHT22;66074;50.764;6.090;2023-04-06T12:04:14;12.80;73.40
19803;DHT22;66074;50.764;6.090;2023-04-06T12:06:40;12.90;74.30
19803;DHT22;66074;50.764;6.090;2023-04-06T12:09:05;12.90;74.00
19803;DHT22;66074;50.764;6.090;2023-04-06T12:11:31;13.00;74.30
19803;DHT22;66074;50.764;6.090;2023-04-06T12:13:57;13.00;74.00
19803;DHT22;66074;50.764;6.090;2023-04-06T12:16:24;13.00;73.50
19803;DHT22;66074;50.764;6.090;2023-04-06T12:18:51;13.00;75.10
19803;DHT22;66074;50.764;6.090;2023-04-06T12:21:16;13.00;75.30
19803;DHT22;66074;50.764;6.090;2023-04-06T12:23:42;13.00;75.50
19803;DHT22;66074;50.764;6.090;2023-04-06T12:26:08;13.00;74.80
19803;DHT22;66074;50.764;6.090;2023-04-06T12:28:33;12.90;74.90
19803;DHT22;66074;50.764;6.090;2023-04-06T12:30:59;12.80;75.00
19803;DHT22;66074;50.764;6.090;2023-04-06T12:33:25;12.80;75.70
19803;DHT22;66074;50.764;6.090;2023-04-06T12:35:51;12.80;75.90
19803;DHT22;66074;50.764;6.090;2023-04-06T12:38:17;12.80;75.70
19803;DHT22;66074;50.764;6.090;2023-04-06T12:40:42;12.90;76.50
19803;DHT22;66074;50.764;6.090;2023-04-06T12:43:08;12.80;76.40
19803;DHT22;66074;50.764;6.090;2023-04-06T12:45:34;12.80;76.90
19803;DHT22;66074;50.764;6.090;2023-04-06T12:48:00;12.90;77.50
19803;DHT22;66074;50.764;6.090;2023-04-06T12:50:25;12.80;77.30
19803;DHT22;66074;50.764;6.090;2023-04-06T12:52:51;12.90;77.10
19803;DHT22;66074;50.764;6.090;2023-04-06T12:55:17;12.90;77.60
19803;DHT22;66074;50.764;6.090;2023-04-06T12:57:44;12.90;77.30
19803;DHT22;66074;50.764;6.090;2023-04-06T13:00:11;12.90;77.60
19803;DHT22;66074;50.764;6.090;2023-04-06T13:02:36;12.80;77.80
19803;DHT22;66074;50.764;6.090;2023-04-06T13:05:02;12.90;77.90
19803;DHT22;66074;50.764;6.090;2023-04-06T13:07:28;12.90;78.50
19803;DHT22;66074;50.764;6.090;2023-04-06T13:09:54;12.90;78.20
19803;DHT22;66074;50.764;6.090;2023-04-06T13:12:19;12.90;79.20
19803;DHT22;66074;50.764;6.090;2023-04-06T13:14:45;12.80;78.70
19803;DHT22;66074;50.764;6.090;2023-04-06T13:17:16;12.80;79.10
19803;DHT22;66074;50.764;6.090;2023-04-06T13:19:43;12.80;79.70
19803;DHT22;66074;50.764;6.090;2023-04-06T13:22:08;12.80;79.20
19803;DHT22;66074;50.764;6.090;2023-04-06T13:24:34;12.70;79.10
19803;DHT22;66074;50.764;6.090;2023-04-06T13:27:00;12.60;79.10
19803;DHT22;66074;50.764;6.090;2023-04-06T13:29:26;12.60;79.20
19803;DHT22;66074;50.764;6.090;2023-04-06T13:31:52;12.50;80.20
19803;DHT22;66074;50.764;6.090;2023-04-06T13:34:18;12.50;80.50
19803;DHT22;66074;50.764;6.090;2023-04-06T13:36:44;12.50;80.80
19803;DHT22;66074;50.764;6.090;2023-04-06T13:39:09;12.50;80.50
19803;DHT22;66074;50.764;6.090;2023-04-06T13:41:35;12.50;80.90
19803;DHT22;66074;50.764;6.090;2023-04-06T13:44:01;12.40;80.50
19803;DHT22;66074;50.764;6.090;2023-04-06T13:46:27;12.40;81.30
19803;DHT22;66074;50.764;6.090;2023-04-06T13:48:53;12.30;81.30
19803;DHT22;66074;50.764;6.090;2023-04-06T13:51:18;12.40;81.60
19803;DHT22;66074;50.764;6.090;2023-04-06T13:53:44;12.40;82.00
19803;DHT22;66074;50.764;6.090;2023-04-06T13:56:10;12.40;82.00
19803;DHT22;66074;50.764;6.090;2023-04-06T13:58:36;12.40;82.00
19803;DHT22;66074;50.764;6.090;2023-04-06T14:01:06;12.30;81.80
19803;DHT22;66074;50.764;6.090;2023-04-06T14:03:32;12.20;82.30
19803;DHT22;66074;50.764;6.090;2023-04-06T14:05:59;12.10;82.60
19803;DHT22;66074;50.764;6.090;2023-04-06T14:08:24;12.00;83.10
19803;DHT22;66074;50.764;6.090;2023-04-06T14:10:50;12.10;83.30
19803;DHT22;66074;50.764;6.090;2023-04-06T14:13:16;12.00;82.90
19803;DHT22;66074;50.764;6.090;2023-04-06T14:15:42;12.00;83.30
19803;DHT22;66074;50.764;6.090;2023-04-06T14:18:08;12.00;83.60
19803;DHT22;66074;50.764;6.090;2023-04-06T14:20:34;11.90;83.30
19803;DHT22;66074;50.764;6.090;2023-04-06T14:23:01;11.90;84.50
19803;DHT22;66074;50.764;6.090;2023-04-06T14:25:27;11.80;84.70
19803;DHT22;66074;50.764;6.090;2023-04-06T14:27:52;11.80;84.10
19803;DHT22;66074;50.764;6.090;2023-04-06T14:30:18;11.90;85.00
19803;DHT22;66074;50.764;6.090;2023-04-06T14:32:44;11.80;84.60
19803;DHT22;66074;50.764;6.090;2023-04-06T14:35:10;11.80;84.70
19803;DHT22;66074;50.764;6.090;2023-04-06T14:37:35;11.80;85.30
19803;DHT22;66074;50.764;6.090;2023-04-06T14:40:02;11.80;85.30
19803;DHT22;66074;50.764;6.090;2023-04-06T14:42:28;11.70;84.70
19803;DHT22;66074;50.764;6.090;2023-04-06T14:44:53;11.70;85.20
19803;DHT22;66074;50.764;6.090;2023-04-06T14:47:19;11.70;85.10
19803;DHT22;66074;50.764;6.090;2023-04-06T14:49:50;11.80;86.00
19803;DHT22;66074;50.764;6.090;2023-04-06T14:52:15;11.80;85.40
19803;DHT22;66074;50.764;6.090;2023-04-06T14:54:41;11.90;86.20
19803;DHT22;66074;50.764;6.090;2023-04-06T14:57:07;11.90;85.70
19803;DHT22;66074;50.764;6.090;2023-04-06T14:59:32;12.00;85.70
19803;DHT22;66074;50.764;6.090;2023-04-06T15:01:58;11.90;85.90
19803;DHT22;66074;50.764;6.090;2023-04-06T15:04:26;12.10;86.50
19803;DHT22;66074;50.764;6.090;2023-04-06T15:06:51;12.20;86.90
19803;DHT22;66074;50.764;6.090;2023-04-06T15:09:17;12.20;86.80
19803;DHT22;66074;50.764;6.090;2023-04-06T15:11:42;12.20;85.90
19803;DHT22;66074;50.764;6.090;2023-04-06T15:14:08;12.20;86.10
19803;DHT22;66074;50.764;6.090;2023-04-06T15:16:34;12.20;86.10
19803;DHT22;66074;50.764;6.090;2023-04-06T15:19:00;12.20;86.10
19803;DHT22;66074;50.764;6.090;2023-04-06T15:21:26;12.20;85.60
19803;DHT22;66074;50.764;6.090;2023-04-06T15:23:52;12.10;85.60
19803;DHT22;66074;50.764;6.090;2023-04-06T15:26:18;12.00;85.90
19803;DHT22;66074;50.764;6.090;2023-04-06T15:28:44;11.90;85.90
19803;DHT22;66074;50.764;6.090;2023-04-06T15:31:16;11.80;85.80
19803;DHT22;66074;50.764;6.090;2023-04-06T15:33:43;11.70;86.10
19803;DHT22;66074;50.764;6.090;2023-04-06T15:36:28;11.60;86.50
19803;DHT22;66074;50.764;6.090;2023-04-06T15:38:57;11.50;87.80
19803;DHT22;66074;50.764;6.090;2023-04-06T15:41:23;11.50;86.40